sensor_id;sensor_type;location;lat;lon;timestamp;temperature;humidity
19435;DHT22;9853;50.848;4.108;2023-11-19T00:01:56;14.40;99.90
19435;DHT22;9853;50.848;4.108;2023-11-19T00:03:58;14.30;99.90
19435;DHT22;9853;50.848;4.108;2023-11-19T00:05:59;14.40;99.90
19435;DHT22;9853;50.848;4.108;2023-11-19T00:08:00;14.50;99.90
19435;DHT22;9853;50.848;4.108;2023-11-19T00:10:02;14.40;99.90
19435;DHT22;9853;50.848;4.108;2023-11-19T00:12:07;14.40;99.90
19435;DHT22;9853;50.848;4.108;2023-11-19T00:14:08;14.30;99.90
19435;DHT22;9853;50.848;4.108;2023-11-19T00:16:09;14.30;99.90
19435;DHT22;9853;50.848;4.108;2023-11-19T00:18:10;14.30;99.90
19435;DHT22;9853;50.848;4.108;2023-11-19T00:20:17;14.30;99.90
19435;DHT22;9853;50.848;4.108;2023-11-19T00:22:19;14.30;99.90
19435;DHT22;9853;50.848;4.108;2023-11-19T00:24:22;14.30;99.90
19435;DHT22;9853;50.848;4.108;2023-11-19T00:26:23;14.40;99.90
19435;DHT22;9853;50.848;4.108;2023-11-19T00:28:27;14.40;99.90
19435;DHT22;9853;50.848;4.108;2023-11-19T00:30:28;14.40;99.90
19435;DHT22;9853;50.848;4.108;2023-11-19T00:32:28;14.30;99.90
19435;DHT22;9853;50.848;4.108;2023-11-19T00:34:30;14.30;99.90
19435;DHT22;9853;50.848;4.108;2023-11-19T00:36:30;14.20;99.90
19435;DHT22;9853;50.848;4.108;2023-11-19T00:38:31;14.20;99.90
19435;DHT22;9853;50.848;4.108;2023-11-19T00:40:33;14.20;99.90
19435;DHT22;9853;50.848;4.108;2023-11-19T00:42:33;14.30;99.90
19435;DHT22;9853;50.848;4.108;2023-11-19T00:44:34;14.30;99.90
19435;DHT22;9853;50.848;4.108;2023-11-19T00:46:35;14.20;99.90
19435;DHT22;9853;50.848;4.108;2023-11-19T00:48:45;14.20;99.90
19435;DHT22;9853;50.848;4.108;2023-11-19T00:50:47;14.30;99.90
19435;DHT22;9853;50.848;4.108;2023-11-19T00:52:49;14.30;99.90
19435;DHT22;9853;50.848;4.108;2023-11-19T00:54:50;14.40;99.90
19435;DHT22;9853;50.848;4.108;2023-11-19T00:56:53;14.40;99.90
19435;DHT22;9853;50.848;4.108;2023-11-19T00:58:54;14.40;99.90
19435;DHT22;9853;50.848;4.108;2023-11-19T01:00:55;14.40;99.90
19435;DHT22;9853;50.848;4.108;2023-11-19T01:02:57;14.30;99.90
19435;DHT22;9853;50.848;4.108;2023-11-19T01:05:00;14.30;99.90
19435;DHT22;9853;50.848;4.108;2023-11-19T01:07:13;14.30;99.90
19435;DHT22;9853;50.848;4.108;2023-11-19T01:09:14;14.40;99.90
19435;DHT22;9853;50.848;4.108;2023-11-19T01:11:22;14.40;99.90
19435;DHT22;9853;50.848;4.108;2023-11-19T01:13:24;14.40;99.90
19435;DHT22;9853;50.848;4.108;2023-11-19T01:15:25;14.30;99.90
19435;DHT22;9853;50.848;4.108;2023-11-19T01:17:26;14.60;99.90
19435;DHT22;9853;50.848;4.108;2023-11-19T01:19:27;14.80;99.90
19435;DHT22;9853;50.848;4.108;2023-11-19T01:21:30;14.70;99.90
19435;DHT22;9853;50.848;4.108;2023-11-19T01:23:31;14.60;99.90
19435;DHT22;9853;50.848;4.108;2023-11-19T01:25:33;14.50;99.90
19435;DHT22;9853;50.848;4.108;2023-11-19T01:27:34;14.50;99.90
19435;DHT22;9853;50.848;4.108;2023-11-19T01:29:36;14.30;99.90
19435;DHT22;9853;50.848;4.108;2023-11-19T01:31:39;14.40;99.90
19435;DHT22;9853;50.848;4.108;2023-11-19T01:33:39;14.40;99.90
19435;DHT22;9853;50.848;4.108;2023-11-19T01:35:42;14.40;99.90
19435;DHT22;9853;50.848;4.108;2023-11-19T01:37:43;14.50;99.90
19435;DHT22;9853;50.848;4.108;2023-11-19T01:39:47;14.40;99.90
19435;DHT22;9853;50.848;4.108;2023-11-19T01:41:48;14.40;99.90
19435;DHT22;9853;50.848;4.108;2023-11-19T01:43:50;14.50;99.90
19435;DHT22;9853;50.848;4.108;2023-11-19T01:45:51;14.50;99.90
19435;DHT22;9853;50.848;4.108;2023-11-19T01:47:51;14.50;99.90
19435;DHT22;9853;50.848;4.108;2023-11-19T01:49:57;14.50;99.90
19435;DHT22;9853;50.848;4.108;2023-11-19T01:51:58;14.40;99.90
19435;DHT22;9853;50.848;4.108;2023-11-19T01:54:02;14.20;99.90
19435;DHT22;9853;50.848;4.108;2023-11-19T01:56:05;14.20;99.90
19435;DHT22;9853;50.848;4.108;2023-11-19T01:58:09;14.10;99.90
19435;DHT22;9853;50.848;4.108;2023-11-19T02:00:10;14.10;99.90
19435;DHT22;9853;50.848;4.108;2023-11-19T02:02:14;14.10;99.90
19435;DHT22;9853;50.848;4.108;2023-11-19T02:04:24;14.00;99.90
19435;DHT22;9853;50.848;4.108;2023-11-19T02:06:28;14.10;99.90
19435;DHT22;9853;50.848;4.108;2023-11-19T02:08:29;14.10;99.90
19435;DHT22;9853;50.848;4.108;2023-11-19T02:10:30;14.10;99.90
19435;DHT22;9853;50.848;4.108;2023-11-19T02:12:33;14.10;99.90
19435;DHT22;9853;50.848;4.108;2023-11-19T02:14:36;14.10;99.90
19435;DHT22;9853;50.848;4.108;2023-11-19T02:16:37;14.10;99.90
19435;DHT22;9853;50.848;4.108;2023-11-19T02:18:38;13.90;99.90
19435;DHT22;9853;50.848;4.108;2023-11-19T02:20:39;14.00;99.90
19435;DHT22;9853;50.848;4.108;2023-11-19T02:22:41;14.10;99.90
19435;DHT22;9853;50.848;4.108;2023-11-19T02:24:45;14.10;99.90
19435;DHT22;9853;50.848;4.108;2023-11-19T02:27:13;14.00;99.90
19435;DHT22;9853;50.848;4.108;2023-11-19T02:29:16;13.90;99.90
19435;DHT22;9853;50.848;4.108;2023-11-19T02:31:20;13.90;99.90
19435;DHT22;9853;50.848;4.108;2023-11-19T02:33:20;13.80;99.90
19435;DHT22;9853;50.848;4.108;2023-11-19T02:35:21;13.90;99.90
19435;DHT22;9853;50.848;4.108;2023-11-19T02:37:23;14.00;99.90
19435;DHT22;9853;50.848;4.108;2023-11-19T02:39:25;14.00;99.90
19435;DHT22;9853;50.848;4.108;2023-11-19T02:41:27;13.90;99.90
19435;DHT22;9853;50.848;4.108;2023-11-19T02:43:28;13.90;99.90
19435;DHT22;9853;50.848;4.108;2023-11-19T02:45:31;13.90;99.90
19435;DHT22;9853;50.848;4.108;2023-11-19T02:47:36;13.90;99.90
19435;DHT22;9853;50.848;4.108;2023-11-19T02:49:37;13.90;99.90
19435;DHT22;9853;50.848;4.108;2023-11-19T02:51:37;13.80;99.90
19435;DHT22;9853;50.848;4.108;2023-11-19T02:53:39;13.80;99.90
19435;DHT22;9853;50.848;4.108;2023-11-19T02:55:40;13.70;99.90
19435;DHT22;9853;50.848;4.108;2023-11-19T02:57:42;13.60;99.90
19435;DHT22;9853;50.848;4.108;2023-11-19T02:59:49;13.60;99.90
19435;DHT22;9853;50.848;4.108;2023-11-19T03:01:50;13.60;99.90
19435;DHT22;9853;50.848;4.108;2023-11-19T03:03:51;13.50;99.90
19435;DHT22;9853;50.848;4.108;2023-11-19T03:06:02;13.50;99.90
19435;DHT22;9853;50.848;4.108;2023-11-19T03:08:09;13.40;99.90
19435;DHT22;9853;50.848;4.108;2023-11-19T03:10:20;13.40;99.90
19435;DHT22;9853;50.848;4.108;2023-11-19T03:12:32;13.30;99.90
19435;DHT22;9853;50.848;4.108;2023-11-19T03:14:36;13.30;99.90
19435;DHT22;9853;50.848;4.108;2023-11-19T03:16:36;13.30;99.90
19435;DHT22;9853;50.848;4.108;2023-11-19T03:18:38;13.30;99.90
19435;DHT22;9853;50.848;4.108;2023-11-19T03:20:39;13.40;99.90
19435;DHT22;9853;50.848;4.108;2023-11-19T03:22:41;13.40;99.90
19435;DHT22;9853;50.848;4.108;2023-11-19T03:24:42;13.40;99.90
19435;DHT22;9853;50.848;4.108;2023-11-19T03:26:47;13.40;99.90
19435;DHT22;9853;50.848;4.108;2023-11-19T03:28:48;13.40;99.90
19435;DHT22;9853;50.848;4.108;2023-11-19T03:30:49;13.40;99.90
19435;DHT22;9853;50.848;4.108;2023-11-19T03:32:50;13.20;99.90
19435;DHT22;9853;50.848;4.108;2023-11-19T03:34:51;13.20;99.90
19435;DHT22;9853;50.848;4.108;2023-11-19T03:36:52;13.20;99.90
19435;DHT22;9853;50.848;4.108;2023-11-19T03:38:53;13.10;99.90
19435;DHT22;9853;50.848;4.108;2023-11-19T03:40:54;13.10;99.90
19435;DHT22;9853;50.848;4.108;2023-11-19T03:42:58;13.10;99.90
19435;DHT22;9853;50.848;4.108;2023-11-19T03:44:59;13.10;99.90
19435;DHT22;9853;50.848;4.108;2023-11-19T03:47:00;13.20;99.90
19435;DHT22;9853;50.848;4.108;2023-11-19T03:49:04;13.20;99.90
19435;DHT22;9853;50.848;4.108;2023-11-19T03:51:08;13.20;99.90
19435;DHT22;9853;50.848;4.108;2023-11-19T03:53:08;13.20;99.90
19435;DHT22;9853;50.848;4.108;2023-11-19T03:55:09;13.00;99.90
19435;DHT22;9853;50.848;4.108;2023-11-19T03:57:10;13.10;99.90
19435;DHT22;9853;50.848;4.108;2023-11-19T03:59:17;13.20;99.90
19435;DHT22;9853;50.848;4.108;2023-11-19T04:01:25;13.10;99.90
19435;DHT22;9853;50.848;4.108;2023-11-19T04:03:25;13.10;99.90
19435;DHT22;9853;50.848;4.108;2023-11-19T04:05:29;13.10;99.90
19435;DHT22;9853;50.848;4.108;2023-11-19T04:07:30;13.00;99.90
19435;DHT22;9853;50.848;4.108;2023-11-19T04:09:32;13.10;99.90
19435;DHT22;9853;50.848;4.108;2023-11-19T04:11:40;13.10;99.90
19435;DHT22;9853;50.848;4.108;2023-11-19T04:13:41;13.10;99.90
19435;DHT22;9853;50.848;4.108;2023-11-19T04:15:42;13.00;99.90
19435;DHT22;9853;50.848;4.108;2023-11-19T04:17:44;12.90;99.90
19435;DHT22;9853;50.848;4.108;2023-11-19T04:19:44;12.90;99.90
19435;DHT22;9853;50.848;4.108;2023-11-19T04:21:45;13.00;99.90
19435;DHT22;9853;50.848;4.108;2023-11-19T04:23:49;12.90;99.90
19435;DHT22;9853;50.848;4.108;2023-11-19T04:25:50;12.90;99.90
19435;DHT22;9853;50.848;4.108;2023-11-19T04:27:52;12.90;99.90
19435;DHT22;9853;50.848;4.108;2023-11-19T04:29:56;12.80;99.90
19435;DHT22;9853;50.848;4.108;2023-11-19T04:31:57;12.80;99.90
19435;DHT22;9853;50.848;4.108;2023-11-19T04:34:07;12.80;99.90
19435;DHT22;9853;50.848;4.108;2023-11-19T04:36:12;12.80;99.90
19435;DHT22;9853;50.848;4.108;2023-11-19T04:38:14;12.90;99.90
19435;DHT22;9853;50.848;4.108;2023-11-19T04:40:22;12.90;99.90
19435;DHT22;9853;50.848;4.108;2023-11-19T04:42:23;13.00;99.90
19435;DHT22;9853;50.848;4.108;2023-11-19T04:44:26;12.90;99.90
19435;DHT22;9853;50.848;4.108;2023-11-19T04:46:27;12.90;99.90
19435;DHT22;9853;50.848;4.108;2023-11-19T04:48:28;12.90;99.90
19435;DHT22;9853;50.848;4.108;2023-11-19T04:50:30;12.90;99.90
19435;DHT22;9853;50.848;4.108;2023-11-19T04:52:39;12.90;99.90
19435;DHT22;9853;50.848;4.108;2023-11-19T04:54:49;12.80;99.90
19435;DHT22;9853;50.848;4.108;2023-11-19T04:56:54;12.90;99.90
19435;DHT22;9853;50.848;4.108;2023-11-19T04:58:54;12.80;99.90
19435;DHT22;9853;50.848;4.108;2023-11-19T05:00:55;12.80;99.90
19435;DHT22;9853;50.848;4.108;2023-11-19T05:03:04;12.80;99.90
19435;DHT22;9853;50.848;4.108;2023-11-19T05:05:05;12.90;99.90
19435;DHT22;9853;50.848;4.108;2023-11-19T05:07:06;12.80;99.90
19435;DHT22;9853;50.848;4.108;2023-11-19T05:09:07;12.90;99.90
19435;DHT22;9853;50.848;4.108;2023-11-19T05:11:08;12.70;99.90
19435;DHT22;9853;50.848;4.108;2023-11-19T05:13:12;12.70;99.90
19435;DHT22;9853;50.848;4.108;2023-11-19T05:15:13;12.70;99.90
19435;DHT22;9853;50.848;4.108;2023-11-19T05:17:18;12.70;99.90
19435;DHT22;9853;50.848;4.108;2023-11-19T05:19:19;12.70;99.90
19435;DHT22;9853;50.848;4.108;2023-11-19T05:21:20;12.70;99.90
19435;DHT22;9853;50.848;4.108;2023-11-19T05:23:25;12.70;99.90
19435;DHT22;9853;50.848;4.108;2023-11-19T05:25:29;12.60;99.90
19435;DHT22;9853;50.848;4.108;2023-11-19T05:27:30;12.70;99.90
19435;DHT22;9853;50.848;4.108;2023-11-19T05:29:31;12.70;99.90
19435;DHT22;9853;50.848;4.108;2023-11-19T05:31:32;12.90;99.90
19435;DHT22;9853;50.848;4.108;2023-11-19T05:33:38;13.00;99.90
19435;DHT22;9853;50.848;4.108;2023-11-19T05:35:42;13.00;99.90
19435;DHT22;9853;50.848;4.108;2023-11-19T05:37:43;13.00;99.90
19435;DHT22;9853;50.848;4.108;2023-11-19T05:39:45;13.10;99.90
19435;DHT22;9853;50.848;4.108;2023-11-19T05:41:46;13.00;99.90
19435;DHT22;9853;50.848;4.108;2023-11-19T05:43:49;13.00;99.90
19435;DHT22;9853;50.848;4.108;2023-11-19T05:45:50;12.90;99.90
19435;DHT22;9853;50.848;4.108;2023-11-19T05:47:54;13.00;99.90
19435;DHT22;9853;50.848;4.108;2023-11-19T05:49:54;12.90;99.90
19435;DHT22;9853;50.848;4.108;2023-11-19T05:51:55;12.90;99.90
19435;DHT22;9853;50.848;4.108;2023-11-19T05:53:56;12.80;99.90
19435;DHT22;9853;50.848;4.108;2023-11-19T05:55:59;12.90;99.90
19435;DHT22;9853;50.848;4.108;2023-11-19T05:58:04;12.90;99.90
19435;DHT22;9853;50.848;4.108;2023-11-19T06:00:07;12.90;99.90
19435;DHT22;9853;50.848;4.108;2023-11-19T06:02:12;12.80;99.90
19435;DHT22;9853;50.848;4.108;2023-11-19T06:04:13;12.70;99.90
19435;DHT22;9853;50.848;4.108;2023-11-19T06:06:13;12.60;99.90
19435;DHT22;9853;50.848;4.108;2023-11-19T06:08:14;12.50;99.90
19435;DHT22;9853;50.848;4.108;2023-11-19T06:10:15;12.50;99.90
19435;DHT22;9853;50.848;4.108;2023-11-19T06:12:17;12.50;99.90
19435;DHT22;9853;50.848;4.108;2023-11-19T06:14:18;12.50;99.90
19435;DHT22;9853;50.848;4.108;2023-11-19T06:16:20;12.40;99.90
19435;DHT22;9853;50.848;4.108;2023-11-19T06:18:21;12.30;99.90
19435;DHT22;9853;50.848;4.108;2023-11-19T06:20:23;12.30;99.90
19435;DHT22;9853;50.848;4.108;2023-11-19T06:22:25;12.40;99.90
19435;DHT22;9853;50.848;4.108;2023-11-19T06:24:28;12.30;99.90
19435;DHT22;9853;50.848;4.108;2023-11-19T06:26:29;12.40;99.90
19435;DHT22;9853;50.848;4.108;2023-11-19T06:28:30;12.40;99.90
19435;DHT22;9853;50.848;4.108;2023-11-19T06:30:33;12.40;99.90
19435;DHT22;9853;50.848;4.108;2023-11-19T06:32:37;12.40;99.90
19435;DHT22;9853;50.848;4.108;2023-11-19T06:34:38;12.20;99.90
19435;DHT22;9853;50.848;4.108;2023-11-19T06:36:39;12.20;99.90
19435;DHT22;9853;50.848;4.108;2023-11-19T06:38:45;12.20;99.90
19435;DHT22;9853;50.848;4.108;2023-11-19T06:40:50;12.20;99.90
19435;DHT22;9853;50.848;4.108;2023-11-19T06:42:51;12.20;99.90
19435;DHT22;9853;50.848;4.108;2023-11-19T06:44:55;12.20;99.90
19435;DHT22;9853;50.848;4.108;2023-11-19T06:47:15;12.10;99.90
19435;DHT22;9853;50.848;4.108;2023-11-19T06:49:21;12.10;99.90
19435;DHT22;9853;50.848;4.108;2023-11-19T06:51:30;12.10;99.90
19435;DHT22;9853;50.848;4.108;2023-11-19T06:53:34;12.00;99.90
19435;DHT22;9853;50.848;4.108;2023-11-19T06:55:35;12.00;99.90
19435;DHT22;9853;50.848;4.108;2023-11-19T06:57:38;12.00;99.90
19435;DHT22;9853;50.848;4.108;2023-11-19T07:00:11;12.00;99.90
19435;DHT22;9853;50.848;4.108;2023-11-19T07:02:15;12.00;99.90
19435;DHT22;9853;50.848;4.108;2023-11-19T07:04:16;12.00;99.90
19435;DHT22;9853;50.848;4.108;2023-11-19T07:06:20;12.10;99.90
19435;DHT22;9853;50.848;4.108;2023-11-19T07:08:21;12.00;99.90
19435;DHT22;9853;50.848;4.108;2023-11-19T07:10:26;12.10;99.90
19435;DHT22;9853;50.848;4.108;2023-11-19T07:12:31;12.10;99.90
19435;DHT22;9853;50.848;4.108;2023-11-19T07:14:35;12.20;99.90
19435;DHT22;9853;50.848;4.108;2023-11-19T07:16:35;12.20;99.90
19435;DHT22;9853;50.848;4.108;2023-11-19T07:18:39;12.30;99.90
19435;DHT22;9853;50.848;4.108;2023-11-19T07:20:40;12.20;99.90
19435;DHT22;9853;50.848;4.108;2023-11-19T07:22:44;12.00;99.90
19435;DHT22;9853;50.848;4.108;2023-11-19T07:24:56;11.90;99.90
19435;DHT22;9853;50.848;4.108;2023-11-19T07:27:00;11.90;99.90
19435;DHT22;9853;50.848;4.108;2023-11-19T07:29:02;11.90;99.90
19435;DHT22;9853;50.848;4.108;2023-11-19T07:31:03;11.80;99.90
19435;DHT22;9853;50.848;4.108;2023-11-19T07:33:04;11.90;99.90
19435;DHT22;9853;50.848;4.108;2023-11-19T07:35:05;11.90;99.90
19435;DHT22;9853;50.848;4.108;2023-11-19T07:37:06;12.00;99.90
19435;DHT22;9853;50.848;4.108;2023-11-19T07:39:08;12.10;99.90
19435;DHT22;9853;50.848;4.108;2023-11-19T07:41:08;12.20;99.90
19435;DHT22;9853;50.848;4.108;2023-11-19T07:43:14;12.20;99.90
19435;DHT22;9853;50.848;4.108;2023-11-19T07:45:15;12.20;99.90
19435;DHT22;9853;50.848;4.108;2023-11-19T07:47:16;12.10;99.90
19435;DHT22;9853;50.848;4.108;2023-11-19T07:49:17;12.10;99.90
19435;DHT22;9853;50.848;4.108;2023-11-19T07:51:18;12.10;99.90
19435;DHT22;9853;50.848;4.108;2023-11-19T07:53:19;12.10;99.90
19435;DHT22;9853;50.848;4.108;2023-11-19T07:55:20;12.10;99.90
19435;DHT22;9853;50.848;4.108;2023-11-19T07:57:24;12.10;99.90
19435;DHT22;9853;50.848;4.108;2023-11-19T07:59:25;12.10;99.90
19435;DHT22;9853;50.848;4.108;2023-11-19T08:01:26;12.10;99.90
19435;DHT22;9853;50.848;4.108;2023-11-19T08:03:27;12.30;99.90
19435;DHT22;9853;50.848;4.108;2023-11-19T08:05:34;12.40;99.90
19435;DHT22;9853;50.848;4.108;2023-11-19T08:07:38;12.60;99.90
19435;DHT22;9853;50.848;4.108;2023-11-19T08:09:39;12.50;99.90
19435;DHT22;9853;50.848;4.108;2023-11-19T08:11:41;12.50;99.90
19435;DHT22;9853;50.848;4.108;2023-11-19T08:13:42;12.40;99.90
19435;DHT22;9853;50.848;4.108;2023-11-19T08:15:43;12.40;99.90
19435;DHT22;9853;50.848;4.108;2023-11-19T08:17:44;12.40;99.90
19435;DHT22;9853;50.848;4.108;2023-11-19T08:19:45;12.60;99.90
19435;DHT22;9853;50.848;4.108;2023-11-19T08:21:45;12.60;99.90
19435;DHT22;9853;50.848;4.108;2023-11-19T08:23:49;12.60;99.90
19435;DHT22;9853;50.848;4.108;2023-11-19T08:25:58;12.80;99.90
19435;DHT22;9853;50.848;4.108;2023-11-19T08:27:59;12.60;99.90
19435;DHT22;9853;50.848;4.108;2023-11-19T08:30:01;12.50;99.90
19435;DHT22;9853;50.848;4.108;2023-11-19T08:32:05;12.50;99.90
19435;DHT22;9853;50.848;4.108;2023-11-19T08:34:07;12.50;99.90
19435;DHT22;9853;50.848;4.108;2023-11-19T08:36:15;12.50;99.90
19435;DHT22;9853;50.848;4.108;2023-11-19T08:38:16;12.50;99.90
19435;DHT22;9853;50.848;4.108;2023-11-19T08:40:20;12.60;99.90
19435;DHT22;9853;50.848;4.108;2023-11-19T08:42:21;12.70;99.90
19435;DHT22;9853;50.848;4.108;2023-11-19T08:44:28;12.60;99.90
19435;DHT22;9853;50.848;4.108;2023-11-19T08:46:31;12.70;99.90
19435;DHT22;9853;50.848;4.108;2023-11-19T08:48:32;12.60;99.90
19435;DHT22;9853;50.848;4.108;2023-11-19T08:50:33;12.60;99.90
19435;DHT22;9853;50.848;4.108;2023-11-19T08:52:34;12.60;99.90
19435;DHT22;9853;50.848;4.108;2023-11-19T08:54:35;12.50;99.90
19435;DHT22;9853;50.848;4.108;2023-11-19T08:56:36;12.50;99.90
19435;DHT22;9853;50.848;4.108;2023-11-19T08:58:41;12.60;99.90
19435;DHT22;9853;50.848;4.108;2023-11-19T09:00:42;12.70;99.90
19435;DHT22;9853;50.848;4.108;2023-11-19T09:02:43;12.70;99.90
19435;DHT22;9853;50.848;4.108;2023-11-19T09:04:44;12.70;99.90
19435;DHT22;9853;50.848;4.108;2023-11-19T09:06:47;12.70;99.90
19435;DHT22;9853;50.848;4.108;2023-11-19T09:08:52;12.80;99.90
19435;DHT22;9853;50.848;4.108;2023-11-19T09:10:53;12.90;99.90
19435;DHT22;9853;50.848;4.108;2023-11-19T09:12:54;13.00;99.90
19435;DHT22;9853;50.848;4.108;2023-11-19T09:15:02;12.90;99.90
19435;DHT22;9853;50.848;4.108;2023-11-19T09:17:03;12.80;99.90
19435;DHT22;9853;50.848;4.108;2023-11-19T09:19:04;13.00;99.90
19435;DHT22;9853;50.848;4.108;2023-11-19T09:21:05;12.80;99.90
19435;DHT22;9853;50.848;4.108;2023-11-19T09:23:06;12.70;99.90
19435;DHT22;9853;50.848;4.108;2023-11-19T09:25:09;12.80;99.90
19435;DHT22;9853;50.848;4.108;2023-11-19T09:27:10;12.80;99.90
19435;DHT22;9853;50.848;4.108;2023-11-19T09:29:11;12.80;99.90
19435;DHT22;9853;50.848;4.108;2023-11-19T09:31:18;13.00;99.90
19435;DHT22;9853;50.848;4.108;2023-11-19T09:33:19;13.00;99.90
19435;DHT22;9853;50.848;4.108;2023-11-19T09:35:20;13.00;99.90
19435;DHT22;9853;50.848;4.108;2023-11-19T09:37:21;12.90;99.90
19435;DHT22;9853;50.848;4.108;2023-11-19T09:39:22;13.10;99.90
19435;DHT22;9853;50.848;4.108;2023-11-19T09:41:23;13.00;99.90
19435;DHT22;9853;50.848;4.108;2023-11-19T09:43:25;13.10;99.90
19435;DHT22;9853;50.848;4.108;2023-11-19T09:45:29;13.30;99.90
19435;DHT22;9853;50.848;4.108;2023-11-19T09:47:33;13.40;99.90
19435;DHT22;9853;50.848;4.108;2023-11-19T09:49:35;13.30;99.90
19435;DHT22;9853;50.848;4.108;2023-11-19T09:51:37;13.40;99.90
19435;DHT22;9853;50.848;4.108;2023-11-19T09:53:38;13.40;99.90
19435;DHT22;9853;50.848;4.108;2023-11-19T09:55:39;13.40;99.90
19435;DHT22;9853;50.848;4.108;2023-11-19T09:57:41;13.40;99.90
19435;DHT22;9853;50.848;4.108;2023-11-19T09:59:42;13.50;99.90
19435;DHT22;9853;50.848;4.108;2023-11-19T10:01:43;13.50;99.90
19435;DHT22;9853;50.848;4.108;2023-11-19T10:03:47;13.40;99.90
19435;DHT22;9853;50.848;4.108;2023-11-19T10:05:48;13.30;99.90
19435;DHT22;9853;50.848;4.108;2023-11-19T10:07:50;13.40;99.90
19435;DHT22;9853;50.848;4.108;2023-11-19T10:09:54;13.50;99.90
19435;DHT22;9853;50.848;4.108;2023-11-19T10:11:56;13.80;99.90
19435;DHT22;9853;50.848;4.108;2023-11-19T10:13:56;13.70;99.90
19435;DHT22;9853;50.848;4.108;2023-11-19T10:15:58;13.80;99.90
19435;DHT22;9853;50.848;4.108;2023-11-19T10:18:04;13.90;99.90
19435;DHT22;9853;50.848;4.108;2023-11-19T10:20:06;14.00;99.90
19435;DHT22;9853;50.848;4.108;2023-11-19T10:22:10;14.20;99.90
19435;DHT22;9853;50.848;4.108;2023-11-19T10:24:14;14.30;99.90
19435;DHT22;9853;50.848;4.108;2023-11-19T10:26:16;14.20;99.90
19435;DHT22;9853;50.848;4.108;2023-11-19T10:28:16;14.20;99.90
19435;DHT22;9853;50.848;4.108;2023-11-19T10:30:28;14.20;99.90
19435;DHT22;9853;50.848;4.108;2023-11-19T10:32:29;14.20;99.90
19435;DHT22;9853;50.848;4.108;2023-11-19T10:34:33;14.10;99.90
19435;DHT22;9853;50.848;4.108;2023-11-19T10:36:40;14.00;99.90
19435;DHT22;9853;50.848;4.108;2023-11-19T10:38:52;14.20;99.90
19435;DHT22;9853;50.848;4.108;2023-11-19T10:40:54;14.10;99.90
19435;DHT22;9853;50.848;4.108;2023-11-19T10:43:02;14.10;99.90
19435;DHT22;9853;50.848;4.108;2023-11-19T10:45:27;14.00;99.90
19435;DHT22;9853;50.848;4.108;2023-11-19T10:47:31;14.00;99.90
19435;DHT22;9853;50.848;4.108;2023-11-19T10:49:44;14.00;99.90
19435;DHT22;9853;50.848;4.108;2023-11-19T10:51:55;14.10;99.90
19435;DHT22;9853;50.848;4.108;2023-11-19T10:54:05;14.00;99.90
19435;DHT22;9853;50.848;4.108;2023-11-19T10:56:10;13.90;99.90
19435;DHT22;9853;50.848;4.108;2023-11-19T10:58:12;13.90;99.90
19435;DHT22;9853;50.848;4.108;2023-11-19T11:00:18;14.10;99.90
19435;DHT22;9853;50.848;4.108;2023-11-19T11:02:24;14.10;99.90
19435;DHT22;9853;50.848;4.108;2023-11-19T11:04:30;14.00;99.90
19435;DHT22;9853;50.848;4.108;2023-11-19T11:06:33;13.90;99.90
19435;DHT22;9853;50.848;4.108;2023-11-19T11:08:39;13.90;99.90
19435;DHT22;9853;50.848;4.108;2023-11-19T11:10:53;13.70;99.90
19435;DHT22;9853;50.848;4.108;2023-11-19T11:12:59;13.90;99.90
19435;DHT22;9853;50.848;4.108;2023-11-19T11:15:05;13.90;99.90
19435;DHT22;9853;50.848;4.108;2023-11-19T11:17:12;13.90;99.90
19435;DHT22;9853;50.848;4.108;2023-11-19T11:19:18;14.30;99.90
19435;DHT22;9853;50.848;4.108;2023-11-19T11:21:24;14.50;99.90
19435;DHT22;9853;50.848;4.108;2023-11-19T11:38:10;14.20;99.90
19435;DHT22;9853;50.848;4.108;2023-11-19T11:40:15;14.10;99.90
19435;DHT22;9853;50.848;4.108;2023-11-19T11:47:04;14.40;99.90
19435;DHT22;9853;50.848;4.108;2023-11-19T11:49:08;14.60;99.90
19435;DHT22;9853;50.848;4.108;2023-11-19T11:51:09;14.60;99.90
19435;DHT22;9853;50.848;4.108;2023-11-19T11:53:20;14.60;99.90
19435;DHT22;9853;50.848;4.108;2023-11-19T11:57:50;14.60;99.90
19435;DHT22;9853;50.848;4.108;2023-11-19T11:59:54;14.50;99.90
19435;DHT22;9853;50.848;4.108;2023-11-19T12:01:58;14.50;99.90
19435;DHT22;9853;50.848;4.108;2023-11-19T12:03:59;14.40;99.90
19435;DHT22;9853;50.848;4.108;2023-11-19T12:06:00;14.40;99.90
19435;DHT22;9853;50.848;4.108;2023-11-19T12:08:05;14.20;99.90
19435;DHT22;9853;50.848;4.108;2023-11-19T12:10:29;14.20;99.90
19435;DHT22;9853;50.848;4.108;2023-11-19T12:12:33;14.10;99.90
19435;DHT22;9853;50.848;4.108;2023-11-19T12:15:00;13.90;99.90
19435;DHT22;9853;50.848;4.108;2023-11-19T12:17:59;13.70;99.90
19435;DHT22;9853;50.848;4.108;2023-11-19T12:19:35;13.60;99.90
19435;DHT22;9853;50.848;4.108;2023-11-19T12:21:48;13.50;99.90
19435;DHT22;9853;50.848;4.108;2023-11-19T12:23:59;13.30;99.90
19435;DHT22;9853;50.848;4.108;2023-11-19T12:26:07;13.10;99.90
19435;DHT22;9853;50.848;4.108;2023-11-19T12:28:15;13.10;99.90
19435;DHT22;9853;50.848;4.108;2023-11-19T12:30:24;13.20;99.90
19435;DHT22;9853;50.848;4.108;2023-11-19T12:32:41;13.20;99.90
19435;DHT22;9853;50.848;4.108;2023-11-19T12:34:46;13.30;99.90
19435;DHT22;9853;50.848;4.108;2023-11-19T12:36:47;13.30;99.90
19435;DHT22;9853;50.848;4.108;2023-11-19T12:38:48;13.40;99.90
19435;DHT22;9853;50.848;4.108;2023-11-19T12:43:13;13.50;99.90
19435;DHT22;9853;50.848;4.108;2023-11-19T12:45:22;13.60;99.90
19435;DHT22;9853;50.848;4.108;2023-11-19T12:47:24;13.80;99.90
19435;DHT22;9853;50.848;4.108;2023-11-19T12:49:26;13.90;99.90
19435;DHT22;9853;50.848;4.108;2023-11-19T12:51:35;13.90;99.90
19435;DHT22;9853;50.848;4.108;2023-11-19T12:53:52;13.90;99.90
19435;DHT22;9853;50.848;4.108;2023-11-19T12:56:07;13.70;99.90
19435;DHT22;9853;50.848;4.108;2023-11-19T12:58:08;13.50;99.90
19435;DHT22;9853;50.848;4.108;2023-11-19T13:00:20;13.40;99.90
19435;DHT22;9853;50.848;4.108;2023-11-19T13:02:44;13.50;99.90
19435;DHT22;9853;50.848;4.108;2023-11-19T13:04:49;13.50;99.90
19435;DHT22;9853;50.848;4.108;2023-11-19T13:06:57;13.70;99.90
19435;DHT22;9853;50.848;4.108;2023-11-19T13:09:24;13.80;99.90
19435;DHT22;9853;50.848;4.108;2023-11-19T13:11:33;14.00;99.90
19435;DHT22;9853;50.848;4.108;2023-11-19T13:14:01;14.10;99.90
19435;DHT22;9853;50.848;4.108;2023-11-19T13:16:07;14.10;99.90
19435;DHT22;9853;50.848;4.108;2023-11-19T13:18:09;14.20;99.90
19435;DHT22;9853;50.848;4.108;2023-11-19T13:20:10;14.10;99.90
19435;DHT22;9853;50.848;4.108;2023-11-19T13:22:11;14.10;99.90
19435;DHT22;9853;50.848;4.108;2023-11-19T13:24:15;14.10;99.90
19435;DHT22;9853;50.848;4.108;2023-11-19T13:26:16;14.00;99.90
19435;DHT22;9853;50.848;4.108;2023-11-19T13:28:22;14.00;99.90
19435;DHT22;9853;50.848;4.108;2023-11-19T13:30:29;14.00;99.90
19435;DHT22;9853;50.848;4.108;2023-11-19T13:32:30;14.10;99.90
19435;DHT22;9853;50.848;4.108;2023-11-19T13:34:35;14.00;99.90
19435;DHT22;9853;50.848;4.108;2023-11-19T13:36:36;14.00;99.90
19435;DHT22;9853;50.848;4.108;2023-11-19T13:38:45;13.90;99.90